sensor_id;sensor_type;location;lat;lon;timestamp;P1;durP1;ratioP1;P2;durP2;ratioP2
51594;SDS011;37677;53.254;6.594;2023-10-19T00:00:45;13.70;;;11.23;;
51594;SDS011;37677;53.254;6.594;2023-10-19T00:03:14;13.40;;;11.77;;
51594;SDS011;37677;53.254;6.594;2023-10-19T00:05:40;13.35;;;12.05;;
51594;SDS011;37677;53.254;6.594;2023-10-19T00:08:07;13.95;;;12.63;;
51594;SDS011;37677;53.254;6.594;2023-10-19T00:10:52;17.13;;;13.00;;
51594;SDS011;37677;53.254;6.594;2023-10-19T00:13:33;12.05;;;10.88;;
51594;SDS011;37677;53.254;6.594;2023-10-19T00:16:06;13.50;;;12.00;;
51594;SDS011;37677;53.254;6.594;2023-10-19T00:18:43;12.52;;;11.23;;
51594;SDS011;37677;53.254;6.594;2023-10-19T00:21:09;15.20;;;12.68;;
51594;SDS011;37677;53.254;6.594;2023-10-19T00:23:54;13.57;;;12.00;;
51594;SDS011;37677;53.254;6.594;2023-10-19T00:26:23;15.30;;;13.15;;
51594;SDS011;37677;53.254;6.594;2023-10-19T00:28:54;13.48;;;12.18;;
51594;SDS011;37677;53.254;6.594;2023-10-19T00:31:26;13.85;;;12.55;;
51594;SDS011;37677;53.254;6.594;2023-10-19T00:33:53;13.50;;;12.00;;
51594;SDS011;37677;53.254;6.594;2023-10-19T00:36:20;14.15;;;12.23;;
51594;SDS011;37677;53.254;6.594;2023-10-19T00:38:47;15.65;;;13.48;;
51594;SDS011;37677;53.254;6.594;2023-10-19T00:41:22;15.63;;;12.45;;
51594;SDS011;37677;53.254;6.594;2023-10-19T00:43:55;13.00;;;11.60;;
51594;SDS011;37677;53.254;6.594;2023-10-19T00:46:36;16.33;;;13.27;;
51594;SDS011;37677;53.254;6.594;2023-10-19T00:49:08;16.27;;;13.55;;
51594;SDS011;37677;53.254;6.594;2023-10-19T00:51:56;14.25;;;12.57;;
51594;SDS011;37677;53.254;6.594;2023-10-19T00:54:37;13.82;;;12.20;;
51594;SDS011;37677;53.254;6.594;2023-10-19T00:57:17;13.82;;;12.40;;
51594;SDS011;37677;53.254;6.594;2023-10-19T00:59:58;13.93;;;12.48;;
51594;SDS011;37677;53.254;6.594;2023-10-19T01:02:40;13.23;;;11.93;;
51594;SDS011;37677;53.254;6.594;2023-10-19T01:05:10;16.55;;;14.02;;
51594;SDS011;37677;53.254;6.594;2023-10-19T01:07:38;15.85;;;13.07;;
51594;SDS011;37677;53.254;6.594;2023-10-19T01:10:09;13.77;;;12.38;;
51594;SDS011;37677;53.254;6.594;2023-10-19T01:12:37;17.33;;;14.05;;
51594;SDS011;37677;53.254;6.594;2023-10-19T01:15:15;13.93;;;12.43;;
51594;SDS011;37677;53.254;6.594;2023-10-19T01:20:12;14.77;;;12.90;;
51594;SDS011;37677;53.254;6.594;2023-10-19T01:22:58;14.25;;;12.65;;
51594;SDS011;37677;53.254;6.594;2023-10-19T01:28:33;14.40;;;12.93;;
51594;SDS011;37677;53.254;6.594;2023-10-19T01:31:06;17.85;;;14.77;;
51594;SDS011;37677;53.254;6.594;2023-10-19T01:33:32;14.80;;;13.30;;
51594;SDS011;37677;53.254;6.594;2023-10-19T01:36:01;14.27;;;12.85;;
51594;SDS011;37677;53.254;6.594;2023-10-19T01:38:37;15.35;;;13.75;;
51594;SDS011;37677;53.254;6.594;2023-10-19T01:41:03;15.00;;;12.05;;
51594;SDS011;37677;53.254;6.594;2023-10-19T01:43:49;14.45;;;12.05;;
51594;SDS011;37677;53.254;6.594;2023-10-19T01:46:18;15.25;;;13.68;;
51594;SDS011;37677;53.254;6.594;2023-10-19T01:48:47;15.40;;;13.95;;
51594;SDS011;37677;53.254;6.594;2023-10-19T01:51:15;15.70;;;13.27;;
51594;SDS011;37677;53.254;6.594;2023-10-19T01:53:42;16.65;;;13.70;;
51594;SDS011;37677;53.254;6.594;2023-10-19T01:56:12;14.93;;;13.43;;
51594;SDS011;37677;53.254;6.594;2023-10-19T01:58:40;15.60;;;13.90;;
51594;SDS011;37677;53.254;6.594;2023-10-19T02:01:06;16.40;;;14.80;;
51594;SDS011;37677;53.254;6.594;2023-10-19T02:03:53;15.18;;;13.68;;
51594;SDS011;37677;53.254;6.594;2023-10-19T02:06:22;16.60;;;13.73;;
51594;SDS011;37677;53.254;6.594;2023-10-19T02:08:54;15.40;;;13.52;;
51594;SDS011;37677;53.254;6.594;2023-10-19T02:11:25;15.48;;;13.98;;
51594;SDS011;37677;53.254;6.594;2023-10-19T02:13:53;15.05;;;13.38;;
51594;SDS011;37677;53.254;6.594;2023-10-19T02:16:19;16.60;;;14.27;;
51594;SDS011;37677;53.254;6.594;2023-10-19T02:18:54;13.82;;;12.43;;
51594;SDS011;37677;53.254;6.594;2023-10-19T02:21:21;14.70;;;13.20;;
51594;SDS011;37677;53.254;6.594;2023-10-19T02:23:50;13.35;;;12.05;;
51594;SDS011;37677;53.254;6.594;2023-10-19T02:26:17;13.73;;;12.32;;
51594;SDS011;37677;53.254;6.594;2023-10-19T02:28:45;13.80;;;12.40;;
51594;SDS011;37677;53.254;6.594;2023-10-19T02:31:11;14.23;;;12.68;;
51594;SDS011;37677;53.254;6.594;2023-10-19T02:33:42;14.15;;;12.80;;
51594;SDS011;37677;53.254;6.594;2023-10-19T02:36:12;12.60;;;11.38;;
51594;SDS011;37677;53.254;6.594;2023-10-19T02:38:47;15.15;;;12.63;;
51594;SDS011;37677;53.254;6.594;2023-10-19T02:41:14;14.70;;;12.48;;
51594;SDS011;37677;53.254;6.594;2023-10-19T02:43:41;14.27;;;11.77;;
51594;SDS011;37677;53.254;6.594;2023-10-19T02:46:13;14.32;;;12.90;;
51594;SDS011;37677;53.254;6.594;2023-10-19T02:48:42;12.10;;;10.90;;
51594;SDS011;37677;53.254;6.594;2023-10-19T02:51:12;14.95;;;13.45;;
51594;SDS011;37677;53.254;6.594;2023-10-19T02:53:41;12.52;;;11.23;;
51594;SDS011;37677;53.254;6.594;2023-10-19T02:56:11;12.00;;;10.82;;
51594;SDS011;37677;53.254;6.594;2023-10-19T02:58:40;12.98;;;11.77;;
51594;SDS011;37677;53.254;6.594;2023-10-19T03:01:11;11.95;;;10.60;;
51594;SDS011;37677;53.254;6.594;2023-10-19T03:03:37;14.30;;;12.90;;
51594;SDS011;37677;53.254;6.594;2023-10-19T03:06:03;12.55;;;11.25;;
51594;SDS011;37677;53.254;6.594;2023-10-19T03:08:31;13.27;;;11.77;;
51594;SDS011;37677;53.254;6.594;2023-10-19T03:10:57;11.88;;;10.85;;
51594;SDS011;37677;53.254;6.594;2023-10-19T03:13:29;11.20;;;10.10;;
51594;SDS011;37677;53.254;6.594;2023-10-19T03:15:58;11.63;;;10.43;;
51594;SDS011;37677;53.254;6.594;2023-10-19T03:18:26;12.52;;;11.07;;
51594;SDS011;37677;53.254;6.594;2023-10-19T03:20:53;11.15;;;9.98;;
51594;SDS011;37677;53.254;6.594;2023-10-19T03:23:22;10.32;;;9.32;;
51594;SDS011;37677;53.254;6.594;2023-10-19T03:25:53;12.07;;;10.90;;
51594;SDS011;37677;53.254;6.594;2023-10-19T03:28:38;11.18;;;10.07;;
51594;SDS011;37677;53.254;6.594;2023-10-19T03:31:06;10.68;;;9.57;;
51594;SDS011;37677;53.254;6.594;2023-10-19T03:33:32;9.93;;;9.02;;
51594;SDS011;37677;53.254;6.594;2023-10-19T03:36:01;10.50;;;9.50;;
51594;SDS011;37677;53.254;6.594;2023-10-19T03:38:29;10.32;;;9.32;;
51594;SDS011;37677;53.254;6.594;2023-10-19T03:41:02;9.05;;;8.15;;
51594;SDS011;37677;53.254;6.594;2023-10-19T03:43:32;9.82;;;8.77;;
51594;SDS011;37677;53.254;6.594;2023-10-19T03:45:58;10.40;;;9.45;;
51594;SDS011;37677;53.254;6.594;2023-10-19T03:48:30;10.65;;;8.70;;
51594;SDS011;37677;53.254;6.594;2023-10-19T03:51:02;9.43;;;8.60;;
51594;SDS011;37677;53.254;6.594;2023-10-19T03:53:30;8.90;;;8.10;;
51594;SDS011;37677;53.254;6.594;2023-10-19T03:55:57;10.35;;;8.57;;
51594;SDS011;37677;53.254;6.594;2023-10-19T03:58:24;8.60;;;7.80;;
51594;SDS011;37677;53.254;6.594;2023-10-19T04:00:54;8.57;;;7.75;;
51594;SDS011;37677;53.254;6.594;2023-10-19T04:03:26;8.43;;;7.63;;
51594;SDS011;37677;53.254;6.594;2023-10-19T04:05:55;9.15;;;8.25;;
51594;SDS011;37677;53.254;6.594;2023-10-19T04:08:25;8.43;;;7.63;;
51594;SDS011;37677;53.254;6.594;2023-10-19T04:10:52;7.72;;;7.00;;
51594;SDS011;37677;53.254;6.594;2023-10-19T04:13:37;9.20;;;7.35;;
51594;SDS011;37677;53.254;6.594;2023-10-19T04:16:06;7.68;;;6.97;;
51594;SDS011;37677;53.254;6.594;2023-10-19T04:18:35;8.38;;;7.57;;
51594;SDS011;37677;53.254;6.594;2023-10-19T04:21:03;8.88;;;6.88;;
51594;SDS011;37677;53.254;6.594;2023-10-19T04:23:29;8.15;;;7.15;;
51594;SDS011;37677;53.254;6.594;2023-10-19T04:26:00;8.00;;;7.20;;
51594;SDS011;37677;53.254;6.594;2023-10-19T04:28:30;7.85;;;7.07;;
51594;SDS011;37677;53.254;6.594;2023-10-19T04:30:58;6.97;;;6.38;;
51594;SDS011;37677;53.254;6.594;2023-10-19T04:33:28;7.18;;;6.47;;
51594;SDS011;37677;53.254;6.594;2023-10-19T04:35:55;7.18;;;6.55;;
51594;SDS011;37677;53.254;6.594;2023-10-19T04:38:24;6.80;;;6.15;;
51594;SDS011;37677;53.254;6.594;2023-10-19T04:40:50;6.90;;;6.30;;
51594;SDS011;37677;53.254;6.594;2023-10-19T04:43:16;7.15;;;6.45;;
51594;SDS011;37677;53.254;6.594;2023-10-19T04:45:42;6.32;;;5.72;;
51594;SDS011;37677;53.254;6.594;2023-10-19T04:48:10;5.82;;;5.32;;
51594;SDS011;37677;53.254;6.594;2023-10-19T04:50:36;7.20;;;6.50;;
51594;SDS011;37677;53.254;6.594;2023-10-19T04:53:02;6.85;;;6.15;;
51594;SDS011;37677;53.254;6.594;2023-10-19T04:55:28;7.13;;;6.40;;
51594;SDS011;37677;53.254;6.594;2023-10-19T04:57:55;6.20;;;5.70;;
51594;SDS011;37677;53.254;6.594;2023-10-19T05:00:22;6.47;;;5.88;;
51594;SDS011;37677;53.254;6.594;2023-10-19T05:02:49;6.00;;;5.40;;
51594;SDS011;37677;53.254;6.594;2023-10-19T05:05:17;6.13;;;5.53;;
51594;SDS011;37677;53.254;6.594;2023-10-19T05:07:43;5.55;;;5.05;;
51594;SDS011;37677;53.254;6.594;2023-10-19T05:10:10;6.03;;;5.45;;
51594;SDS011;37677;53.254;6.594;2023-10-19T05:12:36;10.27;;;5.78;;
51594;SDS011;37677;53.254;6.594;2023-10-19T05:15:02;6.10;;;5.50;;
51594;SDS011;37677;53.254;6.594;2023-10-19T05:17:31;5.93;;;5.32;;
51594;SDS011;37677;53.254;6.594;2023-10-19T05:19:57;6.57;;;4.78;;
51594;SDS011;37677;53.254;6.594;2023-10-19T05:22:23;5.10;;;4.70;;
51594;SDS011;37677;53.254;6.594;2023-10-19T05:24:54;5.30;;;4.80;;
51594;SDS011;37677;53.254;6.594;2023-10-19T05:27:20;5.00;;;4.60;;
51594;SDS011;37677;53.254;6.594;2023-10-19T05:29:47;5.47;;;4.97;;
51594;SDS011;37677;53.254;6.594;2023-10-19T05:32:13;5.18;;;4.68;;
51594;SDS011;37677;53.254;6.594;2023-10-19T05:34:39;4.50;;;4.10;;
51594;SDS011;37677;53.254;6.594;2023-10-19T05:37:05;4.75;;;4.35;;
51594;SDS011;37677;53.254;6.594;2023-10-19T05:39:33;4.03;;;3.65;;
51594;SDS011;37677;53.254;6.594;2023-10-19T05:42:01;4.05;;;3.75;;
51594;SDS011;37677;53.254;6.594;2023-10-19T05:44:30;4.07;;;3.67;;
51594;SDS011;37677;53.254;6.594;2023-10-19T05:46:56;4.03;;;3.65;;
51594;SDS011;37677;53.254;6.594;2023-10-19T05:49:23;3.72;;;3.42;;
51594;SDS011;37677;53.254;6.594;2023-10-19T05:51:50;3.83;;;3.42;;
51594;SDS011;37677;53.254;6.594;2023-10-19T05:54:16;4.85;;;3.45;;
51594;SDS011;37677;53.254;6.594;2023-10-19T05:56:42;3.38;;;2.97;;
51594;SDS011;37677;53.254;6.594;2023-10-19T05:59:08;3.55;;;3.22;;
51594;SDS011;37677;53.254;6.594;2023-10-19T06:01:38;3.28;;;2.97;;
51594;SDS011;37677;53.254;6.594;2023-10-19T06:04:04;5.35;;;3.42;;
51594;SDS011;37677;53.254;6.594;2023-10-19T06:06:30;3.72;;;3.42;;
51594;SDS011;37677;53.254;6.594;2023-10-19T06:08:56;3.40;;;3.10;;
51594;SDS011;37677;53.254;6.594;2023-10-19T06:11:22;3.22;;;2.63;;
51594;SDS011;37677;53.254;6.594;2023-10-19T06:13:49;3.80;;;3.35;;
51594;SDS011;37677;53.254;6.594;2023-10-19T06:16:15;3.35;;;3.05;;
51594;SDS011;37677;53.254;6.594;2023-10-19T06:18:42;3.10;;;2.83;;
51594;SDS011;37677;53.254;6.594;2023-10-19T06:21:08;3.28;;;2.97;;
51594;SDS011;37677;53.254;6.594;2023-10-19T06:23:35;2.95;;;2.65;;
51594;SDS011;37677;53.254;6.594;2023-10-19T06:26:08;2.75;;;2.55;;
51594;SDS011;37677;53.254;6.594;2023-10-19T06:28:36;2.50;;;2.30;;
51594;SDS011;37677;53.254;6.594;2023-10-19T06:31:04;2.60;;;2.40;;
51594;SDS011;37677;53.254;6.594;2023-10-19T06:33:31;2.88;;;2.58;;
51594;SDS011;37677;53.254;6.594;2023-10-19T06:35:59;2.60;;;2.40;;
51594;SDS011;37677;53.254;6.594;2023-10-19T06:38:28;2.40;;;2.20;;
51594;SDS011;37677;53.254;6.594;2023-10-19T06:40:54;3.83;;;2.45;;
51594;SDS011;37677;53.254;6.594;2023-10-19T06:43:21;2.17;;;2.00;;
51594;SDS011;37677;53.254;6.594;2023-10-19T06:45:50;2.72;;;2.40;;
51594;SDS011;37677;53.254;6.594;2023-10-19T06:48:17;2.80;;;2.55;;
51594;SDS011;37677;53.254;6.594;2023-10-19T06:50:43;2.50;;;2.30;;
51594;SDS011;37677;53.254;6.594;2023-10-19T06:53:10;2.58;;;2.38;;
51594;SDS011;37677;53.254;6.594;2023-10-19T06:55:36;2.63;;;2.10;;
51594;SDS011;37677;53.254;6.594;2023-10-19T06:58:02;2.40;;;2.20;;
51594;SDS011;37677;53.254;6.594;2023-10-19T07:00:30;2.05;;;1.85;;
51594;SDS011;37677;53.254;6.594;2023-10-19T07:02:56;2.63;;;2.10;;
51594;SDS011;37677;53.254;6.594;2023-10-19T07:05:25;2.40;;;2.10;;
51594;SDS011;37677;53.254;6.594;2023-10-19T07:07:55;2.25;;;2.05;;
51594;SDS011;37677;53.254;6.594;2023-10-19T07:10:22;2.30;;;2.10;;
51594;SDS011;37677;53.254;6.594;2023-10-19T07:12:52;2.60;;;2.35;;
51594;SDS011;37677;53.254;6.594;2023-10-19T07:15:18;2.50;;;2.30;;
51594;SDS011;37677;53.254;6.594;2023-10-19T07:17:48;2.30;;;2.08;;
51594;SDS011;37677;53.254;6.594;2023-10-19T07:20:16;2.55;;;2.35;;
51594;SDS011;37677;53.254;6.594;2023-10-19T07:22:57;2.10;;;1.90;;
51594;SDS011;37677;53.254;6.594;2023-10-19T07:25:44;2.08;;;1.95;;
51594;SDS011;37677;53.254;6.594;2023-10-19T07:28:14;2.25;;;2.05;;
51594;SDS011;37677;53.254;6.594;2023-10-19T07:30:41;1.70;;;1.60;;
51594;SDS011;37677;53.254;6.594;2023-10-19T07:33:07;2.10;;;1.90;;
51594;SDS011;37677;53.254;6.594;2023-10-19T07:35:35;1.95;;;1.85;;
51594;SDS011;37677;53.254;6.594;2023-10-19T07:38:04;2.10;;;1.90;;
51594;SDS011;37677;53.254;6.594;2023-10-19T07:40:33;2.10;;;1.90;;
51594;SDS011;37677;53.254;6.594;2023-10-19T07:42:59;4.00;;;1.65;;
51594;SDS011;37677;53.254;6.594;2023-10-19T07:45:25;3.47;;;2.00;;
51594;SDS011;37677;53.254;6.594;2023-10-19T07:47:51;1.80;;;1.70;;
51594;SDS011;37677;53.254;6.594;2023-10-19T07:50:17;1.90;;;1.80;;
51594;SDS011;37677;53.254;6.594;2023-10-19T07:52:49;2.70;;;2.00;;
51594;SDS011;37677;53.254;6.594;2023-10-19T07:55:16;4.47;;;1.73;;
51594;SDS011;37677;53.254;6.594;2023-10-19T07:57:42;2.20;;;1.90;;
51594;SDS011;37677;53.254;6.594;2023-10-19T08:00:12;1.88;;;1.75;;
51594;SDS011;37677;53.254;6.594;2023-10-19T08:02:42;1.85;;;1.70;;
51594;SDS011;37677;53.254;6.594;2023-10-19T08:05:11;2.13;;;1.92;;
51594;SDS011;37677;53.254;6.594;2023-10-19T08:07:38;1.80;;;1.70;;
51594;SDS011;37677;53.254;6.594;2023-10-19T08:10:05;1.70;;;1.60;;
51594;SDS011;37677;53.254;6.594;2023-10-19T08:12:34;1.80;;;1.70;;
51594;SDS011;37677;53.254;6.594;2023-10-19T08:15:01;1.70;;;1.60;;
51594;SDS011;37677;53.254;6.594;2023-10-19T08:17:28;1.70;;;1.60;;
51594;SDS011;37677;53.254;6.594;2023-10-19T08:19:55;1.98;;;1.77;;
51594;SDS011;37677;53.254;6.594;2023-10-19T08:22:22;2.58;;;2.00;;
51594;SDS011;37677;53.254;6.594;2023-10-19T08:24:49;1.70;;;1.60;;
51594;SDS011;37677;53.254;6.594;2023-10-19T08:27:17;2.05;;;1.85;;
51594;SDS011;37677;53.254;6.594;2023-10-19T08:29:46;2.10;;;1.90;;
51594;SDS011;37677;53.254;6.594;2023-10-19T08:32:15;2.35;;;2.15;;
51594;SDS011;37677;53.254;6.594;2023-10-19T08:34:44;1.67;;;1.58;;
51594;SDS011;37677;53.254;6.594;2023-10-19T08:37:10;4.18;;;1.98;;
51594;SDS011;37677;53.254;6.594;2023-10-19T08:39:39;1.80;;;1.70;;
51594;SDS011;37677;53.254;6.594;2023-10-19T08:42:06;2.00;;;1.90;;
51594;SDS011;37677;53.254;6.594;2023-10-19T08:44:32;2.05;;;1.85;;
51594;SDS011;37677;53.254;6.594;2023-10-19T08:47:01;2.05;;;1.85;;
51594;SDS011;37677;53.254;6.594;2023-10-19T08:49:28;2.38;;;2.17;;
51594;SDS011;37677;53.254;6.594;2023-10-19T08:51:54;2.30;;;2.10;;
51594;SDS011;37677;53.254;6.594;2023-10-19T08:54:21;2.15;;;1.95;;
51594;SDS011;37677;53.254;6.594;2023-10-19T08:56:51;2.10;;;1.90;;
51594;SDS011;37677;53.254;6.594;2023-10-19T08:59:17;2.08;;;1.90;;
51594;SDS011;37677;53.254;6.594;2023-10-19T09:01:43;3.08;;;2.05;;
51594;SDS011;37677;53.254;6.594;2023-10-19T09:04:14;2.42;;;2.22;;
51594;SDS011;37677;53.254;6.594;2023-10-19T09:06:41;2.20;;;2.00;;
51594;SDS011;37677;53.254;6.594;2023-10-19T09:09:15;2.30;;;2.10;;
51594;SDS011;37677;53.254;6.594;2023-10-19T09:11:48;2.00;;;1.90;;
51594;SDS011;37677;53.254;6.594;2023-10-19T09:14:14;2.13;;;1.92;;
51594;SDS011;37677;53.254;6.594;2023-10-19T09:16:55;2.10;;;1.90;;
51594;SDS011;37677;53.254;6.594;2023-10-19T09:22:21;1.90;;;1.80;;
51594;SDS011;37677;53.254;6.594;2023-10-19T09:24:48;4.32;;;1.90;;
51594;SDS011;37677;53.254;6.594;2023-10-19T09:27:18;2.45;;;2.25;;
51594;SDS011;37677;53.254;6.594;2023-10-19T09:29:45;2.17;;;1.98;;
51594;SDS011;37677;53.254;6.594;2023-10-19T09:32:11;2.30;;;1.90;;
51594;SDS011;37677;53.254;6.594;2023-10-19T09:34:40;2.15;;;1.95;;
51594;SDS011;37677;53.254;6.594;2023-10-19T09:37:10;2.20;;;2.00;;
51594;SDS011;37677;53.254;6.594;2023-10-19T09:39:38;2.03;;;1.80;;
51594;SDS011;37677;53.254;6.594;2023-10-19T09:42:09;2.15;;;1.90;;
51594;SDS011;37677;53.254;6.594;2023-10-19T09:44:48;2.20;;;2.00;;
51594;SDS011;37677;53.254;6.594;2023-10-19T09:47:34;2.00;;;1.80;;
51594;SDS011;37677;53.254;6.594;2023-10-19T09:50:01;2.25;;;2.03;;
51594;SDS011;37677;53.254;6.594;2023-10-19T09:52:28;2.40;;;2.20;;
51594;SDS011;37677;53.254;6.594;2023-10-19T10:00:11;2.35;;;2.15;;
51594;SDS011;37677;53.254;6.594;2023-10-19T10:02:38;4.10;;;2.55;;
51594;SDS011;37677;53.254;6.594;2023-10-19T10:05:43;3.25;;;2.50;;
51594;SDS011;37677;53.254;6.594;2023-10-19T10:10:40;9.00;;;3.47;;
51594;SDS011;37677;53.254;6.594;2023-10-19T10:15:56;4.05;;;2.40;;
51594;SDS011;37677;53.254;6.594;2023-10-19T10:18:31;3.42;;;2.30;;
51594;SDS011;37677;53.254;6.594;2023-10-19T10:23:34;6.60;;;2.50;;
51594;SDS011;37677;53.254;6.594;2023-10-19T10:26:05;2.50;;;2.30;;
51594;SDS011;37677;53.254;6.594;2023-10-19T10:28:33;3.15;;;2.88;;
51594;SDS011;37677;53.254;6.594;2023-10-19T10:31:07;2.90;;;2.60;;
51594;SDS011;37677;53.254;6.594;2023-10-19T10:36:06;3.38;;;2.55;;
51594;SDS011;37677;53.254;6.594;2023-10-19T10:38:35;4.50;;;2.90;;
51594;SDS011;37677;53.254;6.594;2023-10-19T10:41:01;3.22;;;2.88;;
51594;SDS011;37677;53.254;6.594;2023-10-19T10:43:28;4.78;;;3.10;;
51594;SDS011;37677;53.254;6.594;2023-10-19T10:46:04;2.90;;;2.70;;
51594;SDS011;37677;53.254;6.594;2023-10-19T10:48:30;3.97;;;3.40;;
51594;SDS011;37677;53.254;6.594;2023-10-19T10:50:56;3.63;;;2.80;;
51594;SDS011;37677;53.254;6.594;2023-10-19T10:53:23;3.53;;;3.13;;
51594;SDS011;37677;53.254;6.594;2023-10-19T10:55:57;3.33;;;3.03;;
51594;SDS011;37677;53.254;6.594;2023-10-19T10:58:26;3.65;;;3.10;;
51594;SDS011;37677;53.254;6.594;2023-10-19T11:00:52;3.78;;;3.05;;
51594;SDS011;37677;53.254;6.594;2023-10-19T11:03:19;4.45;;;3.03;;
51594;SDS011;37677;53.254;6.594;2023-10-19T11:05:47;3.88;;;3.20;;
51594;SDS011;37677;53.254;6.594;2023-10-19T11:08:15;3.40;;;2.80;;
51594;SDS011;37677;53.254;6.594;2023-10-19T11:10:46;3.38;;;3.08;;
51594;SDS011;37677;53.254;6.594;2023-10-19T11:13:13;4.00;;;2.90;;
51594;SDS011;37677;53.254;6.594;2023-10-19T11:15:39;3.65;;;3.05;;
51594;SDS011;37677;53.254;6.594;2023-10-19T11:18:27;3.70;;;3.40;;
51594;SDS011;37677;53.254;6.594;2023-10-19T11:20:56;9.27;;;3.10;;
51594;SDS011;37677;53.254;6.594;2023-10-19T11:26:22;6.78;;;3.90;;
51594;SDS011;37677;53.254;6.594;2023-10-19T11:28:58;5.72;;;4.50;;
51594;SDS011;37677;53.254;6.594;2023-10-19T11:31:25;4.85;;;4.45;;
51594;SDS011;37677;53.254;6.594;2023-10-19T11:33:53;5.78;;;5.18;;
51594;SDS011;37677;53.254;6.594;2023-10-19T11:36:21;7.65;;;5.90;;
51594;SDS011;37677;53.254;6.594;2023-10-19T11:38:49;7.07;;;6.47;;
51594;SDS011;37677;53.254;6.594;2023-10-19T11:41:19;7.10;;;6.50;;
51594;SDS011;37677;53.254;6.594;2023-10-19T11:43:46;7.47;;;6.78;;
51594;SDS011;37677;53.254;6.594;2023-10-19T11:46:14;6.82;;;6.25;;
51594;SDS011;37677;53.254;6.594;2023-10-19T11:48:40;8.20;;;7.40;;
51594;SDS011;37677;53.254;6.594;2023-10-19T11:51:08;7.30;;;6.15;;
51594;SDS011;37677;53.254;6.594;2023-10-19T11:53:36;6.68;;;6.07;;
51594;SDS011;37677;53.254;6.594;2023-10-19T11:56:03;6.53;;;5.82;;
51594;SDS011;37677;53.254;6.594;2023-10-19T11:58:30;4.93;;;4.53;;
51594;SDS011;37677;53.254;6.594;2023-10-19T12:01:00;5.63;;;4.93;;
51594;SDS011;37677;53.254;6.594;2023-10-19T12:03:30;5.03;;;4.50;;
51594;SDS011;37677;53.254;6.594;2023-10-19T12:05:56;6.55;;;5.00;;
51594;SDS011;37677;53.254;6.594;2023-10-19T12:08:22;5.28;;;4.68;;
51594;SDS011;37677;53.254;6.594;2023-10-19T12:10:50;4.70;;;4.30;;
51594;SDS011;37677;53.254;6.594;2023-10-19T12:13:16;7.35;;;4.53;;
51594;SDS011;37677;53.254;6.594;2023-10-19T12:15:43;4.28;;;3.58;;
51594;SDS011;37677;53.254;6.594;2023-10-19T12:18:17;5.82;;;4.40;;
51594;SDS011;37677;53.254;6.594;2023-10-19T12:20:43;3.90;;;3.55;;
51594;SDS011;37677;53.254;6.594;2023-10-19T12:23:11;5.32;;;4.82;;
51594;SDS011;37677;53.254;6.594;2023-10-19T12:25:37;6.53;;;4.97;;
51594;SDS011;37677;53.254;6.594;2023-10-19T12:28:03;7.63;;;4.53;;
51594;SDS011;37677;53.254;6.594;2023-10-19T12:30:29;6.07;;;5.47;;
51594;SDS011;37677;53.254;6.594;2023-10-19T12:33:05;6.53;;;5.35;;
51594;SDS011;37677;53.254;6.594;2023-10-19T12:35:38;5.03;;;4.53;;
51594;SDS011;37677;53.254;6.594;2023-10-19T12:38:13;7.70;;;4.80;;
51594;SDS011;37677;53.254;6.594;2023-10-19T12:40:45;8.38;;;5.38;;
51594;SDS011;37677;53.254;6.594;2023-10-19T12:43:12;7.10;;;5.45;;
51594;SDS011;37677;53.254;6.594;2023-10-19T12:45:39;5.55;;;5.00;;
51594;SDS011;37677;53.254;6.594;2023-10-19T12:48:05;5.13;;;4.63;;
51594;SDS011;37677;53.254;6.594;2023-10-19T12:50:33;6.38;;;5.63;;
51594;SDS011;37677;53.254;6.594;2023-10-19T12:53:00;6.63;;;5.95;;
51594;SDS011;37677;53.254;6.594;2023-10-19T12:55:26;5.97;;;5.00;;
51594;SDS011;37677;53.254;6.594;2023-10-19T12:57:55;7.63;;;5.15;;
51594;SDS011;37677;53.254;6.594;2023-10-19T13:00:31;7.38;;;5.07;;
51594;SDS011;37677;53.254;6.594;2023-10-19T13:03:09;6.28;;;5.60;;
51594;SDS011;37677;53.254;6.594;2023-10-19T13:05:39;8.27;;;6.28;;
51594;SDS011;37677;53.254;6.594;2023-10-19T13:08:06;5.70;;;5.07;;
51594;SDS011;37677;53.254;6.594;2023-10-19T13:10:33;5.45;;;4.95;;
51594;SDS011;37677;53.254;6.594;2023-10-19T13:13:03;7.03;;;5.13;;
51594;SDS011;37677;53.254;6.594;2023-10-19T13:15:33;4.47;;;4.03;;
51594;SDS011;37677;53.254;6.594;2023-10-19T13:18:00;4.70;;;4.07;;
51594;SDS011;37677;53.254;6.594;2023-10-19T13:20:26;5.57;;;3.67;;
51594;SDS011;37677;53.254;6.594;2023-10-19T13:22:56;5.30;;;3.70;;
51594;SDS011;37677;53.254;6.594;2023-10-19T13:25:22;4.45;;;3.67;;
51594;SDS011;37677;53.254;6.594;2023-10-19T13:28:05;6.85;;;3.47;;
51594;SDS011;37677;53.254;6.594;2023-10-19T13:30:35;6.78;;;4.03;;
51594;SDS011;37677;53.254;6.594;2023-10-19T13:33:03;7.35;;;3.90;;
51594;SDS011;37677;53.254;6.594;2023-10-19T13:35:29;4.38;;;3.25;;
51594;SDS011;37677;53.254;6.594;2023-10-19T13:37:55;4.82;;;3.85;;
51594;SDS011;37677;53.254;6.594;2023-10-19T13:40:21;7.43;;;3.92;;
51594;SDS011;37677;53.254;6.594;2023-10-19T13:42:48;5.03;;;3.78;;
51594;SDS011;37677;53.254;6.594;2023-10-19T13:45:14;5.43;;;4.20;;
51594;SDS011;37677;53.254;6.594;2023-10-19T13:47:40;6.63;;;4.20;;
51594;SDS011;37677;53.254;6.594;2023-10-19T13:50:06;4.60;;;3.80;;
51594;SDS011;37677;53.254;6.594;2023-10-19T13:52:33;5.70;;;4.13;;
51594;SDS011;37677;53.254;6.594;2023-10-19T13:55:01;6.57;;;4.43;;
51594;SDS011;37677;53.254;6.594;2023-10-19T13:57:28;8.30;;;3.50;;
51594;SDS011;37677;53.254;6.594;2023-10-19T13:59:54;4.93;;;3.90;;
51594;SDS011;37677;53.254;6.594;2023-10-19T14:02:22;4.95;;;3.70;;
51594;SDS011;37677;53.254;6.594;2023-10-19T14:04:50;5.88;;;3.92;;
51594;SDS011;37677;53.254;6.594;2023-10-19T14:07:16;7.20;;;3.50;;
51594;SDS011;37677;53.254;6.594;2023-10-19T14:09:43;5.75;;;4.53;;
51594;SDS011;37677;53.254;6.594;2023-10-19T14:12:09;4.45;;;3.50;;
51594;SDS011;37677;53.254;6.594;2023-10-19T14:14:35;5.40;;;4.00;;
51594;SDS011;37677;53.254;6.594;2023-10-19T14:17:01;6.15;;;3.80;;
51594;SDS011;37677;53.254;6.594;2023-10-19T14:19:27;5.72;;;3.88;;
51594;SDS011;37677;53.254;6.594;2023-10-19T14:21:54;5.47;;;3.80;;
51594;SDS011;37677;53.254;6.594;2023-10-19T14:24:20;4.00;;;3.53;;
51594;SDS011;37677;53.254;6.594;2023-10-19T14:26:46;6.03;;;3.25;;
51594;SDS011;37677;53.254;6.594;2023-10-19T14:29:12;4.75;;;3.47;;
51594;SDS011;37677;53.254;6.594;2023-10-19T14:31:39;5.72;;;3.55;;
51594;SDS011;37677;53.254;6.594;2023-10-19T14:34:05;4.45;;;3.50;;
51594;SDS011;37677;53.254;6.594;2023-10-19T14:36:33;5.28;;;3.67;;
51594;SDS011;37677;53.254;6.594;2023-10-19T14:38:59;4.43;;;3.80;;
51594;SDS011;37677;53.254;6.594;2023-10-19T14:41:25;4.63;;;3.22;;
51594;SDS011;37677;53.254;6.594;2023-10-19T14:43:51;6.25;;;3.58;;
51594;SDS011;37677;53.254;6.594;2023-10-19T14:46:18;6.45;;;4.32;;
51594;SDS011;37677;53.254;6.594;2023-10-19T14:48:44;6.82;;;4.30;;
51594;SDS011;37677;53.254;6.594;2023-10-19T14:51:10;5.25;;;3.88;;
51594;SDS011;37677;53.254;6.594;2023-10-19T14:53:36;6.20;;;3.85;;
51594;SDS011;37677;53.254;6.594;2023-10-19T14:56:03;6.50;;;4.00;;
51594;SDS011;37677;53.254;6.594;2023-10-19T14:58:29;6.55;;;4.18;;
51594;SDS011;37677;53.254;6.594;2023-10-19T15:00:56;7.63;;;5.18;;
51594;SDS011;37677;53.254;6.594;2023-10-19T15:03:22;7.53;;;5.40;;
51594;SDS011;37677;53.254;6.594;2023-10-19T15:05:52;8.65;;;5.25;;
51594;SDS011;37677;53.254;6.594;2023-10-19T15:08:19;9.45;;;4.93;;
51594;SDS011;37677;53.254;6.594;2023-10-19T15:10:45;7.18;;;4.65;;
51594;SDS011;37677;53.254;6.594;2023-10-19T15:13:11;5.82;;;4.63;;
51594;SDS011;37677;53.254;6.594;2023-10-19T15:15:37;8.38;;;4.55;;
51594;SDS011;37677;53.254;6.594;2023-10-19T15:18:04;7.93;;;5.47;;